createdAt,value
2019-05-10T00:00:46.477Z,10.40
2019-05-10T00:03:34.844Z,10.57
2019-05-10T00:06:23.198Z,11.07
2019-05-10T00:08:52.810Z,10.33
2019-05-10T00:11:36.074Z,9.17
2019-05-10T00:14:27.567Z,8.87
2019-05-10T00:17:12.171Z,9.90
2019-05-10T00:19:42.860Z,9.00
2019-05-10T00:22:13.624Z,8.70
2019-05-10T00:25:00.776Z,8.97
2019-05-10T00:27:17.500Z,8.63
2019-05-10T00:29:48.163Z,10.17
2019-05-10T00:32:19.485Z,9.70
2019-05-10T00:34:50.151Z,14.03
2019-05-10T00:37:21.320Z,8.90
2019-05-10T00:39:51.987Z,10.87
2019-05-10T00:42:22.664Z,8.57
2019-05-10T00:44:53.338Z,11.50
2019-05-10T00:47:23.962Z,12.30
2019-05-10T00:49:54.656Z,11.20
2019-05-10T00:52:25.321Z,12.67
2019-05-10T00:54:56.013Z,9.50
2019-05-10T00:57:26.709Z,10.67
2019-05-10T00:59:57.396Z,9.83
2019-05-10T01:02:28.074Z,11.30
2019-05-10T01:04:58.770Z,10.63
2019-05-10T01:07:29.516Z,11.20
2019-05-10T01:10:00.193Z,12.83
2019-05-10T01:12:30.860Z,10.63
2019-05-10T01:15:01.553Z,10.77
2019-05-10T01:17:32.227Z,11.73
2019-05-10T01:20:03.493Z,10.50
2019-05-10T01:22:34.161Z,9.93
2019-05-10T01:25:04.866Z,14.53
2019-05-10T01:27:35.575Z,14.43
2019-05-10T01:30:07.665Z,13.27
2019-05-10T01:32:38.459Z,10.23
2019-05-10T01:35:09.222Z,11.77
2019-05-10T01:37:39.940Z,17.60
2019-05-10T01:40:10.838Z,12.20
2019-05-10T01:42:42.606Z,10.57
2019-05-10T01:45:13.641Z,9.37
2019-05-10T01:47:44.321Z,11.03
2019-05-10T01:50:15.056Z,10.03
2019-05-10T01:52:45.751Z,15.97
2019-05-10T01:55:16.377Z,12.63
2019-05-10T01:57:47.054Z,11.80
2019-05-10T02:00:17.951Z,11.37
2019-05-10T02:02:48.615Z,13.07
2019-05-10T02:05:19.425Z,13.13
2019-05-10T02:07:50.073Z,12.93
2019-05-10T02:10:21.070Z,10.60
2019-05-10T02:12:51.790Z,10.30
2019-05-10T02:15:22.827Z,12.03
2019-05-10T02:17:53.544Z,11.63
2019-05-10T02:20:24.537Z,12.60
2019-05-10T02:22:55.193Z,13.03
2019-05-10T02:25:26.659Z,12.07
2019-05-10T02:27:57.336Z,9.80
2019-05-10T02:30:28.071Z,12.63
2019-05-10T02:32:58.707Z,11.37
2019-05-10T02:35:29.431Z,13.37
2019-05-10T02:38:00.176Z,11.77
2019-05-10T02:40:30.876Z,10.57
2019-05-10T02:43:01.547Z,15.07
2019-05-10T02:45:32.260Z,12.80
2019-05-10T02:48:02.953Z,15.03
2019-05-10T02:50:33.591Z,10.77
2019-05-10T02:53:05.151Z,16.17
2019-05-10T02:55:36.332Z,13.77
2019-05-10T02:58:07.575Z,10.80
2019-05-10T03:00:42.550Z,13.53
2019-05-10T03:03:13.745Z,12.03
2019-05-10T03:05:48.501Z,12.80
2019-05-10T03:08:17.628Z,11.47
2019-05-10T03:10:58.316Z,14.93
2019-05-10T03:13:32.531Z,16.27
2019-05-10T03:16:05.810Z,12.23
2019-05-10T03:18:36.524Z,13.43
2019-05-10T03:21:10.952Z,13.63
2019-05-10T03:23:41.880Z,12.80
2019-05-10T03:26:12.619Z,14.20
2019-05-10T03:28:43.404Z,11.87
2019-05-10T03:31:14.417Z,12.07
2019-05-10T03:33:45.281Z,13.20
2019-05-10T03:36:15.963Z,9.53
2019-05-10T03:38:47.144Z,10.87
2019-05-10T03:41:18.032Z,12.87
2019-05-10T03:43:48.791Z,9.83
2019-05-10T03:46:19.545Z,11.07
2019-05-10T03:48:50.340Z,13.63
2019-05-10T03:51:21.682Z,11.20
2019-05-10T03:53:52.535Z,8.23
2019-05-10T03:56:23.709Z,11.63
2019-05-10T03:58:55.696Z,8.80
2019-05-10T04:01:26.611Z,8.07
2019-05-10T04:03:57.366Z,9.63
2019-05-10T04:06:28.059Z,9.93
2019-05-10T04:08:58.691Z,10.47
2019-05-10T04:11:30.096Z,6.73
2019-05-10T04:14:00.783Z,8.83
2019-05-10T04:16:31.496Z,8.70
2019-05-10T04:19:02.206Z,10.10
2019-05-10T04:21:33.688Z,9.23
2019-05-10T04:24:04.436Z,7.97
2019-05-10T04:26:35.092Z,5.43
2019-05-10T04:29:07.126Z,12.60
2019-05-10T04:31:37.941Z,6.20
2019-05-10T04:34:09.998Z,5.37
2019-05-10T04:36:41.689Z,5.27
2019-05-10T04:39:12.346Z,5.70
2019-05-10T04:41:43.010Z,4.93
2019-05-10T04:44:13.678Z,4.27
2019-05-10T04:46:44.384Z,5.57
2019-05-10T04:49:15.106Z,5.60
2019-05-10T04:51:45.948Z,6.00
2019-05-10T04:54:16.627Z,5.77
2019-05-10T04:56:47.527Z,7.47
2019-05-10T04:59:18.280Z,6.30
2019-05-10T05:01:49.112Z,8.73
2019-05-10T05:04:19.888Z,8.17
2019-05-10T05:06:50.614Z,5.53
2019-05-10T05:09:21.365Z,5.73
2019-05-10T05:11:52.214Z,3.77
2019-05-10T05:14:22.927Z,6.97
2019-05-10T05:16:53.743Z,6.90
2019-05-10T05:19:24.451Z,7.47
2019-05-10T05:21:55.175Z,6.07
2019-05-10T05:24:26.468Z,7.87
2019-05-10T05:26:57.218Z,4.67
2019-05-10T05:29:28.358Z,5.67
2019-05-10T05:32:01.254Z,4.33
2019-05-10T05:34:31.655Z,7.17
2019-05-10T05:37:02.462Z,4.83
2019-05-10T05:39:33.175Z,8.20
2019-05-10T05:42:03.947Z,8.37
2019-05-10T05:44:34.718Z,10.87
2019-05-10T05:47:06.285Z,6.00
2019-05-10T05:49:36.998Z,9.03
2019-05-10T05:52:07.783Z,11.90
2019-05-10T05:54:38.961Z,7.63
2019-05-10T05:57:09.768Z,7.30
2019-05-10T05:59:40.488Z,6.87
2019-05-10T06:02:11.331Z,7.50
2019-05-10T06:04:46.383Z,9.00
2019-05-10T06:07:14.456Z,7.53
2019-05-10T06:09:45.313Z,6.93
2019-05-10T06:12:16.014Z,5.67
2019-05-10T06:14:49.633Z,5.53
2019-05-10T06:17:23.670Z,8.97
2019-05-10T06:19:51.738Z,7.23
2019-05-10T06:22:24.059Z,6.90
2019-05-10T06:25:09.335Z,8.40
2019-05-10T06:27:56.886Z,6.53
2019-05-10T06:30:39.832Z,10.90
2019-05-10T06:33:15.840Z,8.73
2019-05-10T06:35:57.776Z,6.87
2019-05-10T06:38:40.734Z,6.00
2019-05-10T06:41:21.398Z,7.30
2019-05-10T06:43:54.330Z,6.80
2019-05-10T06:46:29.781Z,7.37
2019-05-10T06:49:07.096Z,7.40
2019-05-10T06:51:31.304Z,8.47
2019-05-10T06:54:02.007Z,8.23
2019-05-10T06:56:33.398Z,6.77
2019-05-10T06:59:13.071Z,7.57
2019-05-10T07:01:38.374Z,5.73
2019-05-10T07:04:10.080Z,5.90
2019-05-10T07:06:42.183Z,5.83
2019-05-10T07:09:12.874Z,7.77
2019-05-10T07:11:44.283Z,6.33
2019-05-10T07:14:15.040Z,9.33
2019-05-10T07:16:45.721Z,6.70
2019-05-10T07:19:16.455Z,5.93
2019-05-10T07:21:51.058Z,5.80
2019-05-10T07:24:24.936Z,6.33
2019-05-10T07:26:56.609Z,6.73
2019-05-10T07:29:30.113Z,8.87
2019-05-10T07:31:58.507Z,6.77
2019-05-10T07:34:32.679Z,6.33
2019-05-10T07:37:05.673Z,5.13
2019-05-10T07:39:36.635Z,5.23
2019-05-10T07:42:09.074Z,4.63
2019-05-10T07:44:41.407Z,5.33
2019-05-10T07:47:12.396Z,5.43
2019-05-10T07:49:43.147Z,5.00
2019-05-10T07:52:13.832Z,6.17
2019-05-10T07:54:47.511Z,4.97
2019-05-10T07:57:18.646Z,5.33
2019-05-10T07:59:51.079Z,4.50
2019-05-10T08:02:22.166Z,4.80
2019-05-10T08:04:53.659Z,5.03
2019-05-10T08:07:24.524Z,4.23
2019-05-10T08:09:55.216Z,7.33
2019-05-10T08:12:28.670Z,5.67
2019-05-10T08:14:59.169Z,4.73
2019-05-10T08:17:29.909Z,6.17
2019-05-10T08:20:00.661Z,11.80
2019-05-10T08:22:32.873Z,4.57
2019-05-10T08:25:03.829Z,4.23
2019-05-10T08:27:34.605Z,5.80
2019-05-10T08:30:20.240Z,8.63
2019-05-10T08:32:39.649Z,5.20
2019-05-10T08:35:16.181Z,7.77
2019-05-10T08:37:43.501Z,6.73
2019-05-10T08:40:14.233Z,5.10
2019-05-10T08:42:49.051Z,6.40
2019-05-10T08:45:17.678Z,5.30
2019-05-10T08:47:52.630Z,7.17
2019-05-10T08:50:43.488Z,6.33
2019-05-10T08:52:56.728Z,6.67
2019-05-10T08:55:25.726Z,4.90
2019-05-10T08:57:56.398Z,4.90
2019-05-10T09:00:41.602Z,5.53
2019-05-10T09:03:00.856Z,5.77
2019-05-10T09:05:34.041Z,5.23
2019-05-10T09:08:05.932Z,6.47
2019-05-10T09:10:37.098Z,10.13
2019-05-10T09:13:08.144Z,5.47
2019-05-10T09:15:43.313Z,6.00
2019-05-10T09:18:12.913Z,5.20
2019-05-10T09:20:47.074Z,6.10
2019-05-10T09:23:20.003Z,5.60
2019-05-10T09:25:52.154Z,6.87
2019-05-10T09:28:23.017Z,7.03
2019-05-10T09:31:00.341Z,8.00
2019-05-10T09:33:26.438Z,8.57
2019-05-10T09:35:59.236Z,10.37
2019-05-10T09:38:34.906Z,9.80
2019-05-10T09:41:05.768Z,11.50
2019-05-10T09:43:42.448Z,14.73
2019-05-10T09:46:11.509Z,10.80
2019-05-10T09:48:45.083Z,9.23
2019-05-10T09:51:19.192Z,9.67
2019-05-10T09:53:48.784Z,11.20
2019-05-10T09:56:19.579Z,8.03
2019-05-10T09:58:50.822Z,7.10
2019-05-10T10:01:22.021Z,8.00
2019-05-10T10:03:52.745Z,7.07
2019-05-10T10:06:23.608Z,14.47
2019-05-10T10:08:54.464Z,7.70
2019-05-10T10:11:27.651Z,7.87
2019-05-10T10:13:59.892Z,6.40
2019-05-10T10:16:32.192Z,5.97
2019-05-10T10:19:02.947Z,6.80
2019-05-10T10:21:35.461Z,6.90
2019-05-10T10:24:15.684Z,6.17
2019-05-10T10:26:39.613Z,9.10
2019-05-10T10:29:10.605Z,6.23
2019-05-10T10:31:51.470Z,5.80
2019-05-10T10:34:14.599Z,6.67
2019-05-10T10:36:47.557Z,6.83
2019-05-10T10:39:22.970Z,6.87
2019-05-10T10:41:52.189Z,5.83
2019-05-10T10:44:23.073Z,6.23
2019-05-10T10:46:53.747Z,4.63
2019-05-10T10:49:28.057Z,4.73
2019-05-10T10:51:57.446Z,4.30
2019-05-10T10:54:36.199Z,4.63
2019-05-10T10:57:00.589Z,4.47
2019-05-10T10:59:31.650Z,4.03
2019-05-10T11:02:28.802Z,4.03
2019-05-10T11:04:40.450Z,3.90
2019-05-10T11:07:10.801Z,3.03
2019-05-10T11:09:42.328Z,4.70
2019-05-10T11:12:14.684Z,6.10
2019-05-10T11:14:46.432Z,5.33
2019-05-10T11:17:17.193Z,6.80
2019-05-10T11:19:48.430Z,6.53
2019-05-10T11:22:21.391Z,8.00
2019-05-10T11:25:02.963Z,7.20
2019-05-10T11:27:25.169Z,6.63
2019-05-10T11:29:55.860Z,6.87
2019-05-10T11:32:26.626Z,6.37
2019-05-10T11:34:57.356Z,6.67
2019-05-10T11:37:34.633Z,8.27
2019-05-10T11:40:01.699Z,7.97
2019-05-10T11:42:37.333Z,6.60
2019-05-10T11:45:06.851Z,6.50
2019-05-10T11:47:37.505Z,5.97
2019-05-10T11:50:10.657Z,5.70
2019-05-10T11:52:41.546Z,4.97
2019-05-10T11:55:12.603Z,4.37
2019-05-10T12:00:28.203Z,3.67
2019-05-10T12:05:26.359Z,3.17
2019-05-10T12:07:55.124Z,3.00
2019-05-10T12:10:26.060Z,3.80
2019-05-10T12:13:08.646Z,4.10
2019-05-10T12:15:31.764Z,4.00
2019-05-10T12:18:04.927Z,4.87
2019-05-10T12:20:52.107Z,4.73
2019-05-10T12:25:58.791Z,5.80
2019-05-10T12:25:59.519Z,4.63
2019-05-10T12:26:27.365Z,2.80
2019-05-10T12:26:49.306Z,5.43
2019-05-10T12:28:15.479Z,7.40
2019-05-10T12:30:50.902Z,5.97
2019-05-10T12:33:25.040Z,8.50
2019-05-10T12:35:53.344Z,7.83
2019-05-10T12:38:29.601Z,8.43
2019-05-10T12:40:56.572Z,10.63
2019-05-10T12:43:27.348Z,9.27
2019-05-10T12:45:58.094Z,10.10
2019-05-10T12:48:28.829Z,9.87
2019-05-10T12:51:07.566Z,10.03
2019-05-10T12:53:36.713Z,10.40
2019-05-10T12:56:05.183Z,10.40
2019-05-10T12:58:35.950Z,11.80
2019-05-10T13:01:06.660Z,10.03
2019-05-10T13:03:38.161Z,8.60
2019-05-10T13:06:08.849Z,8.20
2019-05-10T13:08:40.108Z,10.80
2019-05-10T13:11:11.023Z,9.50
2019-05-10T13:13:42.024Z,9.03
2019-05-10T13:16:12.721Z,9.07
2019-05-10T13:18:50.692Z,7.90
2019-05-10T13:21:20.845Z,7.97
2019-05-10T13:23:53.355Z,8.43
2019-05-10T13:26:21.122Z,9.83
2019-05-10T13:28:52.338Z,9.80
2019-05-10T13:31:23.057Z,9.70
2019-05-10T13:33:54.606Z,10.27
2019-05-10T13:36:30.736Z,9.47
2019-05-10T13:38:57.834Z,8.53
2019-05-10T13:41:28.690Z,10.30
2019-05-10T13:44:04.866Z,10.83
2019-05-10T13:46:31.926Z,11.00
2019-05-10T13:49:02.663Z,10.10
2019-05-10T13:51:34.155Z,10.63
2019-05-10T13:54:05.544Z,10.47
2019-05-10T13:56:36.408Z,9.63
2019-05-10T13:59:15.369Z,10.80
2019-05-10T14:01:44.218Z,10.97
2019-05-10T14:04:13.007Z,8.23
2019-05-10T14:06:46.061Z,9.50
2019-05-10T14:09:22.405Z,10.40
2019-05-10T14:11:54.392Z,9.73
2019-05-10T14:14:26.696Z,12.27
2019-05-10T14:16:59.411Z,8.07
2019-05-10T14:19:35.622Z,7.37
2019-05-10T14:22:05.660Z,7.00
2019-05-10T14:24:36.342Z,6.50
2019-05-10T14:27:07.069Z,6.87
2019-05-10T14:29:37.765Z,7.80
2019-05-10T14:32:09.434Z,5.03
2019-05-10T14:34:43.897Z,6.40
2019-05-10T14:37:14.327Z,4.80
2019-05-10T14:39:46.326Z,5.03
2019-05-10T14:42:17.006Z,6.87
2019-05-10T14:44:47.728Z,6.97
2019-05-10T14:47:19.439Z,5.37
2019-05-10T14:49:50.210Z,10.40
2019-05-10T14:52:22.693Z,5.30
2019-05-10T14:54:55.199Z,4.37
2019-05-10T14:57:26.006Z,2.80
2019-05-10T14:59:57.054Z,4.90
2019-05-10T15:02:27.744Z,5.87
2019-05-10T15:05:01.540Z,3.33
2019-05-10T15:07:35.835Z,5.10
2019-05-10T15:10:07.040Z,2.57
2019-05-10T15:12:38.229Z,3.57
2019-05-10T15:15:09.465Z,3.63
2019-05-10T15:17:41.264Z,4.67
2019-05-10T15:20:12.289Z,3.90
2019-05-10T15:22:43.080Z,6.27
2019-05-10T15:25:14.039Z,4.40
2019-05-10T15:27:44.918Z,3.43
2019-05-10T15:30:16.043Z,3.80
2019-05-10T15:32:46.789Z,4.27
2019-05-10T15:35:17.581Z,3.50
2019-05-10T15:37:48.479Z,4.00
2019-05-10T15:40:19.717Z,3.40
2019-05-10T15:42:50.415Z,5.07
2019-05-10T15:45:21.342Z,6.47
2019-05-10T15:47:57.261Z,3.27
2019-05-10T15:50:24.630Z,5.07
2019-05-10T15:52:55.673Z,6.53
2019-05-10T15:55:28.555Z,3.70
2019-05-10T15:58:00.271Z,6.03
2019-05-10T16:00:39.066Z,2.87
2019-05-10T16:03:05.649Z,5.07
2019-05-10T16:05:43.560Z,7.90
2019-05-10T16:08:13.702Z,3.30
2019-05-10T16:10:49.630Z,3.30
2019-05-10T16:13:24.903Z,2.83
2019-05-10T16:15:57.530Z,3.57
2019-05-10T16:18:26.739Z,3.53
2019-05-10T16:20:57.387Z,4.77
2019-05-10T16:23:28.112Z,2.87
2019-05-10T16:26:05.044Z,5.50
2019-05-10T16:28:35.775Z,4.60
2019-05-10T16:31:06.601Z,3.83
2019-05-10T16:33:37.621Z,5.73
2019-05-10T16:36:08.466Z,2.77
2019-05-10T16:38:39.429Z,6.93
2019-05-10T16:41:10.720Z,2.33
2019-05-10T16:43:41.644Z,2.47
2019-05-10T16:46:12.355Z,3.47
2019-05-10T16:48:43.671Z,4.30
2019-05-10T16:51:14.416Z,3.40
2019-05-10T16:53:45.921Z,3.93
2019-05-10T16:56:19.074Z,5.63
2019-05-10T16:58:52.981Z,3.73
2019-05-10T17:01:27.660Z,4.03
2019-05-10T17:03:59.933Z,2.67
2019-05-10T17:06:27.722Z,4.87
2019-05-10T17:08:58.430Z,4.10
2019-05-10T17:11:29.211Z,3.43
2019-05-10T17:13:59.889Z,4.20
2019-05-10T17:16:30.598Z,5.03
2019-05-10T17:19:01.425Z,6.27
2019-05-10T17:21:32.367Z,5.10
2019-05-10T17:24:03.052Z,7.13
2019-05-10T17:26:33.804Z,7.00
2019-05-10T17:29:07.184Z,5.00
2019-05-10T17:31:39.662Z,2.80
2019-05-10T17:34:10.441Z,7.53
2019-05-10T17:36:41.834Z,4.83
2019-05-10T17:39:12.502Z,5.87
2019-05-10T17:41:43.312Z,3.97
2019-05-10T17:44:17.486Z,3.80
2019-05-10T17:46:50.164Z,6.50
2019-05-10T17:49:19.194Z,6.67
2019-05-10T17:51:50.239Z,4.00
2019-05-10T17:54:21.071Z,3.43
2019-05-10T17:56:51.770Z,4.30
2019-05-10T17:59:22.599Z,7.33
2019-05-10T18:01:53.297Z,6.27
2019-05-10T18:04:24.093Z,7.33
2019-05-10T18:06:54.878Z,5.97
2019-05-10T18:09:34.407Z,8.07
2019-05-10T18:12:15.579Z,7.13
2019-05-10T18:14:44.037Z,4.43
2019-05-10T18:17:14.935Z,10.00
2019-05-10T18:19:45.995Z,5.87
2019-05-10T18:22:16.735Z,7.30
2019-05-10T18:24:47.522Z,7.33
2019-05-10T18:27:18.300Z,4.67
2019-05-10T18:29:49.063Z,6.90
2019-05-10T18:32:19.867Z,4.80
2019-05-10T18:34:50.622Z,5.47
2019-05-10T18:37:22.067Z,11.10
2019-05-10T18:39:54.728Z,7.03
2019-05-10T18:42:27.756Z,5.00
2019-05-10T18:44:59.256Z,4.53
2019-05-10T18:47:30.002Z,4.97
2019-05-10T18:50:00.898Z,6.20
2019-05-10T18:52:31.669Z,5.57
2019-05-10T18:55:02.487Z,5.70
2019-05-10T18:57:33.260Z,5.73
2019-05-10T19:00:04.535Z,5.33
2019-05-10T19:02:35.366Z,7.47
2019-05-10T19:05:07.811Z,7.20
2019-05-10T19:07:38.525Z,5.20
2019-05-10T19:10:09.984Z,5.83
2019-05-10T19:12:42.012Z,5.30
2019-05-10T19:15:15.782Z,6.40
2019-05-10T19:17:47.333Z,6.30
2019-05-10T19:20:18.596Z,4.60
2019-05-10T19:22:49.418Z,8.57
2019-05-10T19:25:20.294Z,5.80
2019-05-10T19:27:51.284Z,5.07
2019-05-10T19:30:22.579Z,8.20
2019-05-10T19:32:56.594Z,5.17
2019-05-10T19:35:29.728Z,5.30
2019-05-10T19:37:58.330Z,4.70
2019-05-10T19:40:29.209Z,4.40
2019-05-10T19:42:59.947Z,4.87
2019-05-10T19:45:31.263Z,4.53
2019-05-10T19:48:05.708Z,4.57
2019-05-10T19:50:35.447Z,4.97
2019-05-10T19:53:07.230Z,5.13
2019-05-10T19:55:38.027Z,5.27
2019-05-10T19:58:08.882Z,5.07
2019-05-10T20:00:40.496Z,5.23
2019-05-10T20:03:11.501Z,5.07
2019-05-10T20:05:42.220Z,6.70
2019-05-10T20:08:13.095Z,4.93
2019-05-10T20:10:44.533Z,5.30
2019-05-10T20:13:15.705Z,6.93
2019-05-10T20:15:46.513Z,4.90
2019-05-10T20:18:17.835Z,5.63
2019-05-10T20:20:48.700Z,6.53
2019-05-10T20:23:19.697Z,5.90
2019-05-10T20:25:50.457Z,4.87
2019-05-10T20:28:21.417Z,5.87
2019-05-10T20:30:52.242Z,6.43
2019-05-10T20:33:23.478Z,5.40
2019-05-10T20:35:54.411Z,5.80
2019-05-10T20:38:25.206Z,4.77
2019-05-10T20:40:55.975Z,5.90
2019-05-10T20:43:26.920Z,4.40
2019-05-10T20:45:57.743Z,6.17
2019-05-10T20:48:28.454Z,5.23
2019-05-10T20:50:59.230Z,5.30
2019-05-10T20:53:29.950Z,4.70
2019-05-10T20:56:00.788Z,5.97
2019-05-10T20:58:31.547Z,4.37
2019-05-10T21:01:02.341Z,4.50
2019-05-10T21:03:33.054Z,6.80
2019-05-10T21:06:03.885Z,5.10
2019-05-10T21:08:34.540Z,7.57
2019-05-10T21:11:05.325Z,4.70
2019-05-10T21:13:36.058Z,6.30
2019-05-10T21:16:06.725Z,4.30
2019-05-10T21:18:37.580Z,5.67
2019-05-10T21:21:08.303Z,7.43
2019-05-10T21:23:39.274Z,10.17
2019-05-10T21:26:10.648Z,5.33
2019-05-10T21:28:41.787Z,5.23
2019-05-10T21:31:12.547Z,5.40
2019-05-10T21:33:43.759Z,5.97
2019-05-10T21:36:14.475Z,5.07
2019-05-10T21:38:45.222Z,5.90
2019-05-10T21:41:15.910Z,5.20
2019-05-10T21:43:46.744Z,5.30
2019-05-10T21:46:17.485Z,7.47
2019-05-10T21:48:48.182Z,6.70
2019-05-10T21:51:18.866Z,6.77
2019-05-10T21:53:49.583Z,6.27
2019-05-10T21:56:20.289Z,5.63
2019-05-10T21:58:50.934Z,5.33
2019-05-10T22:01:22.000Z,5.50
2019-05-10T22:03:52.724Z,6.10
2019-05-10T22:06:23.897Z,5.27
2019-05-10T22:08:54.692Z,4.83
2019-05-10T22:11:25.802Z,5.93
2019-05-10T22:13:56.506Z,5.30
2019-05-10T22:16:27.254Z,5.80
2019-05-10T22:19:02.375Z,6.10
2019-05-10T22:21:33.571Z,5.30
2019-05-10T22:24:04.376Z,4.97
2019-05-10T22:26:35.049Z,5.73
2019-05-10T22:29:05.785Z,6.17
2019-05-10T22:31:36.439Z,6.33
2019-05-10T22:34:07.094Z,7.47
2019-05-10T22:36:38.296Z,6.43
2019-05-10T22:39:09.047Z,6.57
2019-05-10T22:41:39.713Z,7.77
2019-05-10T22:44:10.903Z,6.40
2019-05-10T22:46:41.619Z,5.80
2019-05-10T22:49:12.285Z,6.97
2019-05-10T22:51:43.303Z,5.77
2019-05-10T22:54:13.979Z,5.87
2019-05-10T22:56:44.740Z,5.20
2019-05-10T22:59:15.511Z,5.13
2019-05-10T23:01:46.272Z,7.50
2019-05-10T23:04:17.084Z,4.87
2019-05-10T23:06:47.793Z,5.70
2019-05-10T23:09:24.616Z,5.73
2019-05-10T23:11:50.883Z,5.60
2019-05-10T23:14:21.560Z,5.73
2019-05-10T23:16:52.267Z,5.23
2019-05-10T23:19:22.959Z,4.87
2019-05-10T23:21:53.682Z,5.50
2019-05-10T23:24:39.360Z,5.10
2019-05-10T23:27:10.416Z,4.93
2019-05-10T23:29:41.113Z,6.13
2019-05-10T23:32:12.029Z,4.80
2019-05-10T23:34:42.733Z,4.80
2019-05-10T23:37:13.485Z,5.03
2019-05-10T23:39:44.630Z,5.30
2019-05-10T23:42:15.379Z,5.30
2019-05-10T23:44:46.110Z,6.43
2019-05-10T23:47:16.799Z,5.47
2019-05-10T23:49:47.476Z,5.60
2019-05-10T23:52:18.208Z,4.67
2019-05-10T23:54:48.871Z,5.50
2019-05-10T23:57:19.587Z,5.10
2019-05-10T23:59:50.316Z,5.13
